createdAt,value
2022-12-11T00:00:54.045Z,85600.56
2022-12-11T00:03:21.375Z,85608.34
2022-12-11T00:05:48.603Z,85607.59
2022-12-11T00:08:15.962Z,85607.22
2022-12-11T00:10:50.162Z,85603.50
2022-12-11T00:13:17.533Z,85604.97
2022-12-11T00:15:44.694Z,85602.34
2022-12-11T00:18:14.792Z,85600.50
2022-12-11T00:20:42.289Z,85601.25
2022-12-11T00:23:09.537Z,85605.38
2022-12-11T00:25:41.926Z,85612.03
2022-12-11T00:28:09.126Z,85609.06
2022-12-11T00:30:42.991Z,85607.59
2022-12-11T00:33:12.049Z,85606.84
2022-12-11T00:35:46.834Z,85607.97
2022-12-11T00:38:21.094Z,85605.38
2022-12-11T00:40:49.061Z,85596.81
2022-12-11T00:43:17.008Z,85604.22
2022-12-11T00:45:46.791Z,85600.16
2022-12-11T00:48:14.426Z,85605.38
2022-12-11T00:50:41.823Z,85625.06
2022-12-11T00:53:09.230Z,85635.81
2022-12-11T00:55:42.775Z,85635.06
2022-12-11T00:58:12.054Z,85638.78
2022-12-11T01:00:41.731Z,85638.78
2022-12-11T01:03:09.634Z,85629.84
2022-12-11T01:05:36.904Z,85621.31
2022-12-11T01:08:04.523Z,85632.06
2022-12-11T01:10:33.014Z,85629.81
2022-12-11T01:13:06.831Z,85633.16
2022-12-11T01:15:41.845Z,85639.47
2022-12-11T01:18:12.053Z,85640.94
2022-12-11T01:20:41.600Z,85653.91
2022-12-11T01:23:12.199Z,85654.28
2022-12-11T01:25:40.989Z,85661.31
2022-12-11T01:28:09.585Z,85659.44
2022-12-11T01:30:37.361Z,85654.63
2022-12-11T01:33:04.671Z,85659.47
2022-12-11T01:35:31.904Z,85662.09
2022-12-11T01:37:59.260Z,85667.59
2022-12-11T01:40:26.667Z,85665.00
2022-12-11T01:42:53.878Z,85668.69
2022-12-11T01:45:43.673Z,85670.53
2022-12-11T01:48:27.410Z,85677.97
2022-12-11T01:51:02.842Z,85684.63
2022-12-11T01:53:36.638Z,85686.88
2022-12-11T01:56:06.714Z,85691.31
2022-12-11T01:58:42.528Z,85690.94
2022-12-11T02:01:21.710Z,85703.59
2022-12-11T02:03:50.579Z,85709.13
2022-12-11T02:06:37.563Z,85700.56
2022-12-11T02:09:14.224Z,85698.72
2022-12-11T02:12:06.706Z,85696.84
2022-12-11T02:15:11.573Z,85702.78
2022-12-11T02:18:26.056Z,85690.13
2022-12-11T02:21:23.761Z,85682.34
2022-12-11T02:23:54.266Z,85690.47
2022-12-11T02:26:42.657Z,85695.66
2022-12-11T02:29:20.208Z,85696.72
2022-12-11T02:31:59.018Z,85693.41
2022-12-11T02:34:40.442Z,85691.91
2022-12-11T02:37:16.565Z,85687.44
2022-12-11T02:39:49.008Z,85685.59
2022-12-11T02:42:19.685Z,85682.22
2022-12-11T02:44:50.680Z,85677.03
2022-12-11T02:47:21.084Z,85683.38
2022-12-11T02:49:52.143Z,85674.81
2022-12-11T02:52:25.752Z,85684.44
2022-12-11T02:54:58.091Z,85690.38
2022-12-11T02:57:42.677Z,85685.53
2022-12-11T03:00:11.684Z,85689.53
2022-12-11T03:02:41.195Z,85687.69
2022-12-11T03:05:12.609Z,85676.81
2022-12-11T03:07:43.836Z,85673.44
2022-12-11T03:10:17.493Z,85673.03
2022-12-11T03:12:53.358Z,85679.19
2022-12-11T03:15:27.686Z,85682.84
2022-12-11T03:18:36.354Z,85680.97
2022-12-11T03:21:16.602Z,85687.97
2022-12-11T03:24:03.111Z,85686.78
2022-12-11T03:26:39.541Z,85688.88
2022-12-11T03:29:35.203Z,85690.16
2022-12-11T03:32:21.472Z,85687.66
2022-12-11T03:35:00.964Z,85685.00
2022-12-11T03:37:34.171Z,85688.06
2022-12-11T03:40:10.662Z,85679.19
2022-12-11T03:42:41.931Z,85671.25
2022-12-11T03:45:11.482Z,85672.81
2022-12-11T03:47:42.287Z,85668.28
2022-12-11T03:50:13.977Z,85668.91
2022-12-11T03:52:46.205Z,85672.94
2022-12-11T03:55:17.404Z,85665.53
2022-12-11T03:57:45.142Z,85672.47
2022-12-11T04:00:18.106Z,85668.34
2022-12-11T04:02:46.583Z,85662.47
2022-12-11T04:05:14.514Z,85656.50
2022-12-11T04:07:41.933Z,85661.00
2022-12-11T04:10:10.094Z,85651.78
2022-12-11T04:12:38.274Z,85667.28
2022-12-11T04:15:06.541Z,85668.47
2022-12-11T04:17:37.117Z,85654.81
2022-12-11T04:20:06.408Z,85668.44
2022-12-11T04:22:33.542Z,85665.44
2022-12-11T04:25:02.701Z,85663.25
2022-12-11T04:27:30.853Z,85671.06
2022-12-11T04:29:58.736Z,85674.34
2022-12-11T04:32:26.913Z,85665.03
2022-12-11T04:34:59.032Z,85663.59
2022-12-11T04:37:28.825Z,85669.41
2022-12-11T04:39:56.055Z,85678.56
2022-12-11T04:42:23.450Z,85688.44
2022-12-11T04:44:54.692Z,85685.13
2022-12-11T04:47:22.045Z,85689.91
2022-12-11T04:49:49.336Z,85692.56
2022-12-11T04:52:18.125Z,85695.56
2022-12-11T04:54:46.265Z,85695.97
2022-12-11T04:57:15.110Z,85699.22
2022-12-11T04:59:42.329Z,85697.00
2022-12-11T05:02:09.616Z,85692.88
2022-12-11T05:04:36.838Z,85691.69
2022-12-11T05:07:04.236Z,85698.75
2022-12-11T05:09:31.523Z,85684.97
2022-12-11T05:11:58.675Z,85687.69
2022-12-11T05:14:25.904Z,85691.81
2022-12-11T05:16:53.376Z,85681.91
2022-12-11T05:19:20.528Z,85682.13
2022-12-11T05:21:47.700Z,85689.25
2022-12-11T05:24:14.850Z,85693.63
2022-12-11T05:26:42.233Z,85685.97
2022-12-11T05:29:09.553Z,85686.66
2022-12-11T05:31:36.878Z,85692.53
2022-12-11T05:34:04.126Z,85692.38
2022-12-11T05:36:34.879Z,85702.44
2022-12-11T05:39:05.063Z,85703.59
2022-12-11T05:41:33.946Z,85706.56
2022-12-11T05:44:01.389Z,85713.19
2022-12-11T05:46:30.828Z,85707.88
2022-12-11T05:49:01.894Z,85698.94
2022-12-11T05:51:31.115Z,85704.03
2022-12-11T05:53:58.605Z,85709.84
2022-12-11T05:56:32.772Z,85711.22
2022-12-11T05:59:01.627Z,85718.13
2022-12-11T06:01:42.676Z,85718.00
2022-12-11T06:04:12.482Z,85718.91
2022-12-11T06:06:41.098Z,85713.50
2022-12-11T06:09:08.645Z,85710.00
2022-12-11T06:11:36.515Z,85708.88
2022-12-11T06:14:04.513Z,85707.84
2022-12-11T06:16:32.741Z,85713.44
2022-12-11T06:19:00.153Z,85717.50
2022-12-11T06:21:31.330Z,85720.50
2022-12-11T06:24:01.256Z,85715.78
2022-12-11T06:26:30.179Z,85716.56
2022-12-11T06:28:57.831Z,85719.22
2022-12-11T06:31:25.685Z,85724.38
2022-12-11T06:33:53.444Z,85712.19
2022-12-11T06:36:24.457Z,85723.41
2022-12-11T06:38:59.976Z,85724.09
2022-12-11T06:41:33.832Z,85723.69
2022-12-11T06:44:02.877Z,85723.97
2022-12-11T06:46:51.440Z,85730.28
2022-12-11T06:49:18.734Z,85730.09
2022-12-11T06:51:56.875Z,85737.13
2022-12-11T06:57:47.742Z,85736.72
2022-12-11T07:00:48.258Z,85741.91
2022-12-11T07:03:18.867Z,85740.75
2022-12-11T07:05:46.009Z,85742.59
2022-12-11T07:08:13.215Z,85743.28
2022-12-11T07:10:40.580Z,85749.94
2022-12-11T07:13:26.547Z,85743.38
2022-12-11T07:16:00.782Z,85750.88
2022-12-11T07:18:28.748Z,85751.94
2022-12-11T07:20:59.442Z,85752.97
2022-12-11T07:23:28.196Z,85752.97
2022-12-11T07:25:56.947Z,85755.53
2022-12-11T07:28:24.751Z,85757.31
2022-12-11T07:30:51.937Z,85762.09
2022-12-11T07:33:19.161Z,85769.53
2022-12-11T07:35:46.397Z,85768.91
2022-12-11T07:38:13.638Z,85772.25
2022-12-11T07:40:40.878Z,85772.94
2022-12-11T07:43:08.126Z,85775.94
2022-12-11T07:45:35.848Z,85776.75
2022-12-11T07:48:03.970Z,85781.56
2022-12-11T07:50:35.129Z,85778.97
2022-12-11T07:53:05.350Z,85780.47
2022-12-11T07:55:33.003Z,85779.59
2022-12-11T07:58:00.193Z,85776.50
2022-12-11T08:00:27.326Z,85786.97
2022-12-11T08:02:54.603Z,85785.19
2022-12-11T08:05:21.795Z,85781.22
2022-12-11T08:07:49.060Z,85795.94
2022-12-11T08:10:16.283Z,85793.28
2022-12-11T08:12:43.685Z,85796.81
2022-12-11T08:15:11.719Z,85803.13
2022-12-11T08:17:40.290Z,85804.84
2022-12-11T08:20:08.436Z,85802.88
2022-12-11T08:22:35.795Z,85802.50
2022-12-11T08:25:03.220Z,85807.78
2022-12-11T08:27:30.462Z,85812.16
2022-12-11T08:29:57.769Z,85812.59
2022-12-11T08:32:24.941Z,85808.88
2022-12-11T08:34:52.262Z,85815.81
2022-12-11T08:37:20.283Z,85813.63
2022-12-11T08:39:47.536Z,85810.66
2022-12-11T08:42:14.839Z,85805.88
2022-12-11T08:44:42.369Z,85803.66
2022-12-11T08:47:09.619Z,85806.91
2022-12-11T08:49:37.015Z,85812.22
2022-12-11T08:52:05.830Z,85812.78
2022-12-11T08:54:33.317Z,85804.84
2022-12-11T08:57:00.544Z,85809.22
2022-12-11T08:59:27.897Z,85811.94
2022-12-11T09:01:56.349Z,85812.97
2022-12-11T09:04:24.093Z,85826.13
2022-12-11T09:06:51.331Z,85822.25
2022-12-11T09:09:18.856Z,85820.06
2022-12-11T09:11:46.079Z,85812.66
2022-12-11T09:14:13.246Z,85816.03
2022-12-11T09:16:41.001Z,85808.69
2022-12-11T09:19:13.990Z,85800.25
2022-12-11T09:21:43.056Z,85806.53
2022-12-11T09:24:12.745Z,85809.31
2022-12-11T09:26:40.909Z,85816.44
2022-12-11T09:29:12.976Z,85805.78
2022-12-11T09:31:41.001Z,85803.59
2022-12-11T09:34:12.349Z,85806.72
2022-12-11T09:36:41.556Z,85808.69
2022-12-11T09:39:11.869Z,85812.53
2022-12-11T09:42:13.003Z,85803.34
2022-12-11T09:45:00.134Z,85815.97
2022-12-11T09:48:00.631Z,85807.94
2022-12-11T09:50:34.315Z,85806.00
2022-12-11T09:53:23.814Z,85802.66
2022-12-11T09:56:16.546Z,85800.28
2022-12-11T09:59:18.552Z,85794.31
2022-12-11T10:02:24.725Z,85800.56
2022-12-11T10:05:20.806Z,85794.13
2022-12-11T10:08:06.057Z,85793.56
2022-12-11T10:10:47.371Z,85791.47
2022-12-11T10:13:43.200Z,85798.19
2022-12-11T10:16:13.149Z,85792.66
2022-12-11T10:18:42.041Z,85788.91
2022-12-11T10:21:12.219Z,85785.94
2022-12-11T10:24:02.746Z,85793.63
2022-12-11T10:26:30.374Z,85794.03
2022-12-11T10:29:02.746Z,85789.28
2022-12-11T10:31:52.520Z,85787.00
2022-12-11T10:34:34.374Z,85784.66
2022-12-11T10:37:02.318Z,85782.00
2022-12-11T10:39:30.177Z,85787.63
2022-12-11T10:41:58.233Z,85795.06
2022-12-11T10:44:30.638Z,85789.78
2022-12-11T10:47:15.230Z,85786.09
2022-12-11T10:49:58.173Z,85784.31
2022-12-11T10:52:35.555Z,85781.66
2022-12-11T10:55:16.781Z,85779.75
2022-12-11T10:57:44.585Z,85781.31
2022-12-11T11:00:36.606Z,85781.09
2022-12-11T11:03:20.007Z,85772.69
2022-12-11T11:05:49.503Z,85772.34
2022-12-11T11:08:21.607Z,85760.84
2022-12-11T11:10:58.565Z,85758.53
2022-12-11T11:13:29.952Z,85753.81
2022-12-11T11:16:08.635Z,85751.94
2022-12-11T11:18:36.502Z,85743.47
2022-12-11T11:21:04.017Z,85744.53
2022-12-11T11:23:31.629Z,85743.47
2022-12-11T11:26:01.988Z,85743.75
2022-12-11T11:28:40.686Z,85741.06
2022-12-11T11:31:14.052Z,85737.13
2022-12-11T11:34:06.071Z,85731.13
2022-12-11T11:36:37.252Z,85724.00
2022-12-11T11:39:21.434Z,85731.59
2022-12-11T11:42:15.407Z,85729.91
2022-12-11T11:45:01.481Z,85727.81
2022-12-11T11:47:40.620Z,85729.56
2022-12-11T11:50:26.674Z,85719.91
2022-12-11T11:53:11.995Z,85724.47
2022-12-11T11:56:38.217Z,85728.53
2022-12-11T11:59:11.795Z,85724.47
2022-12-11T12:01:43.420Z,85719.75
2022-12-11T12:04:12.146Z,85719.81
2022-12-11T12:07:23.211Z,85725.03
2022-12-11T12:10:22.272Z,85719.97
2022-12-11T12:13:48.139Z,85726.91
2022-12-11T12:16:52.312Z,85730.44
2022-12-11T12:19:35.903Z,85726.78
2022-12-11T12:22:45.712Z,85726.38
2022-12-11T12:25:26.712Z,85722.50
2022-12-11T12:28:21.276Z,85723.34
2022-12-11T12:31:23.781Z,85714.75
2022-12-11T12:34:15.218Z,85711.78
2022-12-11T12:37:11.446Z,85705.84
2022-12-11T12:40:09.865Z,85712.22
2022-12-11T12:43:28.731Z,85713.78
2022-12-11T12:46:11.739Z,85716.31
2022-12-11T12:48:39.874Z,85722.63
2022-12-11T12:51:13.234Z,85717.50
2022-12-11T12:53:58.454Z,85718.31
2022-12-11T12:56:29.604Z,85726.16
2022-12-11T12:58:57.777Z,85720.19
2022-12-11T13:01:30.181Z,85714.94
2022-12-11T13:04:20.758Z,85727.56
2022-12-11T13:06:54.951Z,85729.69
2022-12-11T13:09:26.592Z,85725.09
2022-12-11T13:11:57.038Z,85718.84
2022-12-11T13:14:33.464Z,85724.75
2022-12-11T13:17:34.773Z,85721.97
2022-12-11T13:20:20.200Z,85723.59
2022-12-11T13:22:54.064Z,85734.19
2022-12-11T13:25:31.034Z,85737.25
2022-12-11T13:28:19.534Z,85740.25
2022-12-11T13:31:02.605Z,85741.88
2022-12-11T13:33:30.597Z,85739.16
2022-12-11T13:36:24.072Z,85734.03
2022-12-11T13:39:25.981Z,85737.66
2022-12-11T13:41:59.773Z,85742.06
2022-12-11T13:44:31.176Z,85747.66
2022-12-11T13:47:03.046Z,85750.66
2022-12-11T13:49:40.757Z,85752.97
2022-12-11T13:52:08.193Z,85759.47
2022-12-11T13:54:36.528Z,85757.59
2022-12-11T13:57:19.920Z,85757.94
2022-12-11T13:59:54.129Z,85752.75
2022-12-11T14:02:32.650Z,85753.31
2022-12-11T14:05:07.529Z,85762.22
2022-12-11T14:07:42.200Z,85761.53
2022-12-11T14:10:19.827Z,85767.44
2022-12-11T14:12:53.283Z,85759.28
2022-12-11T14:15:21.214Z,85763.03
2022-12-11T14:17:51.910Z,85759.34
2022-12-11T14:20:32.705Z,85756.75
2022-12-11T14:23:23.216Z,85765.22
2022-12-11T14:26:22.878Z,85769.84
2022-12-11T14:28:50.931Z,85773.34
2022-12-11T14:31:44.509Z,85773.63
2022-12-11T14:34:37.449Z,85780.69
2022-12-11T14:37:08.173Z,85774.75
2022-12-11T14:39:46.854Z,85776.72
2022-12-11T14:42:28.942Z,85774.56
2022-12-11T14:45:02.973Z,85784.28
2022-12-11T14:47:42.279Z,85789.19
2022-12-11T14:50:23.599Z,85784.53
2022-12-11T14:53:03.970Z,85782.84
2022-12-11T14:55:36.145Z,85783.94
2022-12-11T14:58:13.819Z,85784.69
2022-12-11T15:00:41.184Z,85788.06
2022-12-11T15:03:17.507Z,85787.00
2022-12-11T15:05:59.281Z,85789.16
2022-12-11T15:08:29.249Z,85796.88
2022-12-11T15:11:05.187Z,85786.72
2022-12-11T15:13:36.617Z,85786.81
2022-12-11T15:16:12.268Z,85783.97
2022-12-11T15:18:45.266Z,85789.94
2022-12-11T15:21:13.516Z,85784.09
2022-12-11T15:24:00.412Z,85781.59
2022-12-11T15:26:45.327Z,85784.09
2022-12-11T15:29:37.758Z,85787.69
2022-12-11T15:32:22.375Z,85786.25
2022-12-11T15:34:59.995Z,85786.59
2022-12-11T15:37:34.066Z,85785.84
2022-12-11T15:40:04.992Z,85785.25
2022-12-11T15:42:42.168Z,85790.50
2022-12-11T15:45:19.308Z,85787.34
2022-12-11T15:47:48.437Z,85778.09
2022-12-11T15:50:28.747Z,85780.44
2022-12-11T15:52:57.848Z,85773.44
2022-12-11T15:55:29.495Z,85767.50
2022-12-11T15:58:02.724Z,85773.03
2022-12-11T16:00:30.643Z,85769.69
2022-12-11T16:02:58.987Z,85787.28
2022-12-11T16:05:27.412Z,85782.44
2022-12-11T16:07:54.803Z,85789.13
2022-12-11T16:10:23.955Z,85789.03
2022-12-11T16:12:51.252Z,85792.63
2022-12-11T16:15:23.457Z,85784.13
2022-12-11T16:18:00.322Z,85799.56
2022-12-11T16:20:27.658Z,85799.56
2022-12-11T16:22:54.998Z,85807.66
2022-12-11T16:25:22.238Z,85803.97
2022-12-11T16:27:49.552Z,85810.22
2022-12-11T16:30:16.821Z,85802.00
2022-12-11T16:32:44.588Z,85799.00
2022-12-11T16:35:12.359Z,85815.97
2022-12-11T16:37:39.931Z,85818.91
2022-12-11T16:40:09.965Z,85810.25
2022-12-11T16:42:38.671Z,85821.31
2022-12-11T16:45:14.157Z,85818.75
2022-12-11T16:47:43.014Z,85823.84
2022-12-11T16:50:12.579Z,85817.91
2022-12-11T16:52:42.390Z,85823.75
2022-12-11T16:55:13.488Z,85818.50
2022-12-11T16:57:42.884Z,85820.59
2022-12-11T17:00:13.667Z,85822.28
2022-12-11T17:02:41.002Z,85818.03
2022-12-11T17:05:09.287Z,85813.47
2022-12-11T17:07:40.565Z,85818.53
2022-12-11T17:10:09.158Z,85828.00
2022-12-11T17:12:36.605Z,85821.59
2022-12-11T17:15:04.605Z,85819.44
2022-12-11T17:17:32.141Z,85821.09
2022-12-11T17:19:59.419Z,85815.53
2022-12-11T17:22:27.337Z,85822.44
2022-12-11T17:25:00.425Z,85832.41
2022-12-11T17:27:27.785Z,85828.34
2022-12-11T17:29:55.836Z,85838.06
2022-12-11T17:32:23.030Z,85832.09
2022-12-11T17:34:51.090Z,85833.06
2022-12-11T17:37:18.968Z,85837.56
2022-12-11T17:39:46.209Z,85836.72
2022-12-11T17:42:13.750Z,85835.06
2022-12-11T17:44:40.899Z,85841.19
2022-12-11T17:47:11.167Z,85852.56
2022-12-11T17:49:40.434Z,85850.91
2022-12-11T17:52:08.443Z,85851.00
2022-12-11T17:54:35.767Z,85850.22
2022-12-11T17:57:02.971Z,85861.94
2022-12-11T17:59:30.201Z,85856.06
2022-12-11T18:01:57.478Z,85864.78
2022-12-11T18:04:25.330Z,85864.59
2022-12-11T18:06:52.730Z,85864.41
2022-12-11T18:09:19.921Z,85869.91
2022-12-11T18:11:47.160Z,85870.66
2022-12-11T18:14:17.486Z,85863.88
2022-12-11T18:16:45.070Z,85868.81
2022-12-11T18:19:12.975Z,85868.53
2022-12-11T18:21:44.084Z,85872.16
2022-12-11T18:24:11.867Z,85866.16
2022-12-11T18:26:39.018Z,85873.06
2022-12-11T18:29:06.297Z,85870.06
2022-12-11T18:31:48.579Z,85879.19
2022-12-11T18:34:16.691Z,85876.06
2022-12-11T18:36:44.564Z,85884.78
2022-12-11T18:39:11.896Z,85887.56
2022-12-11T18:41:39.157Z,85887.34
2022-12-11T18:44:09.895Z,85885.03
2022-12-11T18:46:38.964Z,85895.22
2022-12-11T18:49:07.012Z,85892.53
2022-12-11T18:51:34.578Z,85895.00
2022-12-11T18:54:06.099Z,85898.97
2022-12-11T18:56:33.528Z,85899.41
2022-12-11T18:59:01.345Z,85891.28
2022-12-11T19:01:30.112Z,85897.91
2022-12-11T19:04:05.295Z,85896.00
2022-12-11T19:06:39.276Z,85898.78
2022-12-11T19:09:17.125Z,85903.50
2022-12-11T19:11:49.611Z,85913.13
2022-12-11T19:14:16.993Z,85909.25
2022-12-11T19:16:45.151Z,85911.94
2022-12-11T19:19:17.577Z,85911.19
2022-12-11T19:21:46.208Z,85913.75
2022-12-11T19:24:18.365Z,85915.91
2022-12-11T19:26:46.317Z,85909.47
2022-12-11T19:29:28.262Z,85912.69
2022-12-11T19:31:56.560Z,85919.06
2022-12-11T19:34:24.619Z,85920.34
2022-12-11T19:36:52.171Z,85915.00
2022-12-11T19:39:19.520Z,85930.94
2022-12-11T19:41:47.368Z,85928.44
2022-12-11T19:44:14.804Z,85931.53
2022-12-11T19:46:42.351Z,85930.03
2022-12-11T19:49:11.780Z,85929.69
2022-12-11T19:51:42.335Z,85928.81
2022-12-11T19:54:14.980Z,85928.81
2022-12-11T19:56:43.164Z,85936.09
2022-12-11T19:59:16.231Z,85942.38
2022-12-11T20:01:45.534Z,85941.84
2022-12-11T20:04:15.432Z,85941.84
2022-12-11T20:06:45.398Z,85947.47
2022-12-11T20:09:14.236Z,85942.53
2022-12-11T20:11:44.220Z,85943.66
2022-12-11T20:14:21.440Z,85953.16
2022-12-11T20:19:36.995Z,85948.09
2022-12-11T20:22:04.288Z,85954.28
2022-12-11T20:24:31.484Z,85954.00
2022-12-11T20:26:58.689Z,85953.66
2022-12-11T20:29:25.935Z,85958.97
2022-12-11T20:31:53.351Z,85958.00
2022-12-11T20:34:20.818Z,85963.44
2022-12-11T20:36:49.302Z,85958.84
2022-12-11T20:39:16.530Z,85959.63
2022-12-11T20:41:43.719Z,85966.28
2022-12-11T20:44:10.969Z,85960.41
2022-12-11T20:46:38.153Z,85970.84
2022-12-11T20:49:05.314Z,85971.06
2022-12-11T20:51:32.481Z,85969.78
2022-12-11T20:53:59.801Z,85964.97
2022-12-11T20:56:31.557Z,85969.16
2022-12-11T20:59:00.274Z,85960.41
2022-12-11T21:01:32.035Z,85965.41
2022-12-11T21:04:00.722Z,85970.53
2022-12-11T21:06:35.246Z,85964.53
2022-12-11T21:09:12.152Z,85958.53
2022-12-11T21:11:40.166Z,85975.66
2022-12-11T21:14:07.518Z,85976.56
2022-12-11T21:16:37.389Z,85975.25
2022-12-11T21:19:05.836Z,85976.63
2022-12-11T21:21:36.042Z,85980.41
2022-12-11T21:24:04.116Z,85983.41
2022-12-11T21:26:31.303Z,85980.44
2022-12-11T21:28:58.905Z,85981.81
2022-12-11T21:31:26.561Z,85986.50
2022-12-11T21:33:54.198Z,85986.16
2022-12-11T21:36:21.455Z,85987.69
2022-12-11T21:38:49.034Z,85984.81
2022-12-11T21:41:21.778Z,85986.63
2022-12-11T21:46:40.120Z,85991.75
2022-12-11T21:49:07.827Z,85984.53
2022-12-11T21:51:42.678Z,85993.25
2022-12-11T21:54:18.093Z,85987.81
2022-12-11T21:56:46.547Z,85992.66
2022-12-11T21:59:14.578Z,85987.53
2022-12-11T22:01:44.817Z,85987.34
2022-12-11T22:04:14.208Z,85988.53
2022-12-11T22:06:41.715Z,85983.88
2022-12-11T22:09:09.600Z,85990.38
2022-12-11T22:11:36.855Z,85992.22
2022-12-11T22:14:04.650Z,85994.44
2022-12-11T22:16:32.456Z,85999.44
2022-12-11T22:19:00.434Z,85996.41
2022-12-11T22:21:27.767Z,86014.72
2022-12-11T22:23:55.321Z,86006.28
2022-12-11T22:26:26.272Z,86012.78
2022-12-11T22:28:55.105Z,86015.38
2022-12-11T22:31:25.946Z,86015.06
2022-12-11T22:33:54.882Z,86015.38
2022-12-11T22:36:27.173Z,86016.31
2022-12-11T22:38:55.266Z,86017.81
2022-12-11T22:41:28.370Z,86027.31
2022-12-11T22:43:57.116Z,86030.63
2022-12-11T22:46:29.769Z,86034.84
2022-12-11T22:48:58.766Z,86043.44
2022-12-11T22:51:26.208Z,86041.00
2022-12-11T22:53:53.511Z,86050.34
2022-12-11T22:56:20.884Z,86039.81
2022-12-11T22:58:48.273Z,86051.66
2022-12-11T23:01:23.478Z,86050.00
2022-12-11T23:03:51.751Z,86048.97
2022-12-11T23:06:23.117Z,86056.03
2022-12-11T23:08:50.807Z,86051.53
2022-12-11T23:11:29.954Z,86049.09
2022-12-11T23:13:57.937Z,86045.97
2022-12-11T23:16:27.024Z,86048.19
2022-12-11T23:18:56.855Z,86046.97
2022-12-11T23:21:26.008Z,86046.84
2022-12-11T23:23:54.902Z,86050.91
2022-12-11T23:26:22.866Z,86051.06
2022-12-11T23:28:50.595Z,86048.97
2022-12-11T23:31:18.236Z,86049.56
2022-12-11T23:33:45.864Z,86042.47
2022-12-11T23:36:13.682Z,86048.47
2022-12-11T23:38:41.523Z,86044.72
2022-12-11T23:41:12.107Z,86051.31
2022-12-11T23:43:40.612Z,86049.22
2022-12-11T23:46:16.008Z,86057.00
2022-12-11T23:48:43.870Z,86061.34
2022-12-11T23:51:16.431Z,86061.94
2022-12-11T23:53:44.537Z,86064.75
2022-12-11T23:56:22.932Z,86072.34
2022-12-11T23:58:51.245Z,86066.31
